sensor_id;sensor_type;location;lat;lon;timestamp;P1;durP1;ratioP1;P2;durP2;ratioP2
73898;SDS011;62234;50.892;12.724;2024-01-07T00:02:13;32.38;;;11.00;;
73898;SDS011;62234;50.892;12.724;2024-01-07T00:04:42;39.58;;;12.82;;
73898;SDS011;62234;50.892;12.724;2024-01-07T00:07:08;41.22;;;11.43;;
73898;SDS011;62234;50.892;12.724;2024-01-07T00:09:34;35.55;;;10.68;;
73898;SDS011;62234;50.892;12.724;2024-01-07T00:12:00;41.20;;;13.23;;
73898;SDS011;62234;50.892;12.724;2024-01-07T00:14:25;39.20;;;12.05;;
73898;SDS011;62234;50.892;12.724;2024-01-07T00:16:51;38.25;;;12.45;;
73898;SDS011;62234;50.892;12.724;2024-01-07T00:19:17;37.45;;;12.27;;
73898;SDS011;62234;50.892;12.724;2024-01-07T00:21:43;34.80;;;12.30;;
73898;SDS011;62234;50.892;12.724;2024-01-07T00:24:09;37.72;;;11.75;;
73898;SDS011;62234;50.892;12.724;2024-01-07T00:26:35;36.65;;;11.68;;
73898;SDS011;62234;50.892;12.724;2024-01-07T00:29:01;41.05;;;11.90;;
73898;SDS011;62234;50.892;12.724;2024-01-07T00:31:27;40.72;;;13.10;;
73898;SDS011;62234;50.892;12.724;2024-01-07T00:33:53;43.28;;;13.32;;
73898;SDS011;62234;50.892;12.724;2024-01-07T00:36:19;36.80;;;13.00;;
73898;SDS011;62234;50.892;12.724;2024-01-07T00:38:45;37.88;;;12.85;;
73898;SDS011;62234;50.892;12.724;2024-01-07T00:41:11;45.67;;;13.35;;
73898;SDS011;62234;50.892;12.724;2024-01-07T00:43:37;32.08;;;11.10;;
73898;SDS011;62234;50.892;12.724;2024-01-07T00:46:03;40.65;;;12.82;;
73898;SDS011;62234;50.892;12.724;2024-01-07T00:48:29;31.20;;;11.68;;
73898;SDS011;62234;50.892;12.724;2024-01-07T00:50:55;32.58;;;11.50;;
73898;SDS011;62234;50.892;12.724;2024-01-07T00:53:21;28.95;;;11.10;;
73898;SDS011;62234;50.892;12.724;2024-01-07T00:55:47;30.42;;;10.35;;
73898;SDS011;62234;50.892;12.724;2024-01-07T00:58:13;21.55;;;10.35;;
73898;SDS011;62234;50.892;12.724;2024-01-07T01:00:39;20.80;;;9.07;;
73898;SDS011;62234;50.892;12.724;2024-01-07T01:03:05;23.27;;;8.50;;
73898;SDS011;62234;50.892;12.724;2024-01-07T01:05:31;23.73;;;10.73;;
73898;SDS011;62234;50.892;12.724;2024-01-07T01:07:57;23.90;;;9.75;;
73898;SDS011;62234;50.892;12.724;2024-01-07T01:10:22;23.70;;;10.15;;
73898;SDS011;62234;50.892;12.724;2024-01-07T01:12:48;23.05;;;9.25;;
73898;SDS011;62234;50.892;12.724;2024-01-07T01:15:14;15.52;;;8.02;;
73898;SDS011;62234;50.892;12.724;2024-01-07T01:17:43;28.05;;;10.65;;
73898;SDS011;62234;50.892;12.724;2024-01-07T01:20:09;20.02;;;9.38;;
73898;SDS011;62234;50.892;12.724;2024-01-07T01:22:35;22.30;;;10.48;;
73898;SDS011;62234;50.892;12.724;2024-01-07T01:25:01;21.70;;;9.98;;
73898;SDS011;62234;50.892;12.724;2024-01-07T01:27:28;22.60;;;9.20;;
73898;SDS011;62234;50.892;12.724;2024-01-07T01:29:54;26.98;;;10.88;;
73898;SDS011;62234;50.892;12.724;2024-01-07T01:32:20;25.00;;;10.38;;
73898;SDS011;62234;50.892;12.724;2024-01-07T01:34:45;26.98;;;10.20;;
73898;SDS011;62234;50.892;12.724;2024-01-07T01:37:11;24.95;;;10.80;;
73898;SDS011;62234;50.892;12.724;2024-01-07T01:39:41;28.52;;;11.27;;
73898;SDS011;62234;50.892;12.724;2024-01-07T01:42:07;32.95;;;12.13;;
73898;SDS011;62234;50.892;12.724;2024-01-07T01:44:33;28.80;;;12.00;;
73898;SDS011;62234;50.892;12.724;2024-01-07T01:46:59;28.33;;;11.27;;
73898;SDS011;62234;50.892;12.724;2024-01-07T01:49:26;29.40;;;11.32;;
73898;SDS011;62234;50.892;12.724;2024-01-07T01:51:52;30.95;;;13.38;;
73898;SDS011;62234;50.892;12.724;2024-01-07T01:54:18;26.83;;;11.45;;
73898;SDS011;62234;50.892;12.724;2024-01-07T01:56:45;31.13;;;12.18;;
73898;SDS011;62234;50.892;12.724;2024-01-07T01:59:11;27.85;;;11.77;;
73898;SDS011;62234;50.892;12.724;2024-01-07T02:01:37;36.80;;;12.70;;
73898;SDS011;62234;50.892;12.724;2024-01-07T02:04:04;30.83;;;11.55;;
73898;SDS011;62234;50.892;12.724;2024-01-07T02:06:30;42.63;;;13.50;;
73898;SDS011;62234;50.892;12.724;2024-01-07T02:08:56;24.13;;;10.43;;
73898;SDS011;62234;50.892;12.724;2024-01-07T02:11:22;25.70;;;10.45;;
73898;SDS011;62234;50.892;12.724;2024-01-07T02:13:48;22.45;;;10.10;;
73898;SDS011;62234;50.892;12.724;2024-01-07T02:16:14;35.38;;;13.15;;
73898;SDS011;62234;50.892;12.724;2024-01-07T02:18:41;32.67;;;11.85;;
73898;SDS011;62234;50.892;12.724;2024-01-07T02:21:08;24.15;;;10.80;;
73898;SDS011;62234;50.892;12.724;2024-01-07T02:23:34;31.42;;;10.88;;
73898;SDS011;62234;50.892;12.724;2024-01-07T02:26:01;32.97;;;11.27;;
73898;SDS011;62234;50.892;12.724;2024-01-07T02:28:26;23.35;;;9.90;;
73898;SDS011;62234;50.892;12.724;2024-01-07T02:30:52;24.75;;;9.65;;
73898;SDS011;62234;50.892;12.724;2024-01-07T02:33:18;23.05;;;10.82;;
73898;SDS011;62234;50.892;12.724;2024-01-07T02:35:44;29.48;;;11.00;;
73898;SDS011;62234;50.892;12.724;2024-01-07T02:38:10;25.30;;;10.07;;
73898;SDS011;62234;50.892;12.724;2024-01-07T02:40:36;26.23;;;10.55;;
73898;SDS011;62234;50.892;12.724;2024-01-07T02:43:02;22.90;;;8.88;;
73898;SDS011;62234;50.892;12.724;2024-01-07T02:45:28;25.48;;;9.68;;
73898;SDS011;62234;50.892;12.724;2024-01-07T02:47:54;27.40;;;9.93;;
73898;SDS011;62234;50.892;12.724;2024-01-07T02:50:20;24.40;;;9.27;;
73898;SDS011;62234;50.892;12.724;2024-01-07T02:52:45;26.33;;;9.85;;
73898;SDS011;62234;50.892;12.724;2024-01-07T02:55:11;22.50;;;8.75;;
73898;SDS011;62234;50.892;12.724;2024-01-07T02:57:37;22.15;;;8.43;;
73898;SDS011;62234;50.892;12.724;2024-01-07T03:00:03;23.63;;;9.73;;
73898;SDS011;62234;50.892;12.724;2024-01-07T03:02:30;24.60;;;8.23;;
73898;SDS011;62234;50.892;12.724;2024-01-07T03:04:55;18.13;;;7.40;;
73898;SDS011;62234;50.892;12.724;2024-01-07T03:07:21;24.45;;;8.48;;
73898;SDS011;62234;50.892;12.724;2024-01-07T03:09:48;22.90;;;9.15;;
73898;SDS011;62234;50.892;12.724;2024-01-07T03:12:16;24.48;;;8.55;;
73898;SDS011;62234;50.892;12.724;2024-01-07T03:14:42;23.77;;;8.60;;
73898;SDS011;62234;50.892;12.724;2024-01-07T03:17:11;18.70;;;8.10;;
73898;SDS011;62234;50.892;12.724;2024-01-07T03:19:39;21.13;;;8.38;;
73898;SDS011;62234;50.892;12.724;2024-01-07T03:22:06;24.83;;;9.13;;
73898;SDS011;62234;50.892;12.724;2024-01-07T03:24:33;18.92;;;9.10;;
73898;SDS011;62234;50.892;12.724;2024-01-07T03:26:59;22.42;;;8.32;;
73898;SDS011;62234;50.892;12.724;2024-01-07T03:29:25;22.40;;;9.95;;
73898;SDS011;62234;50.892;12.724;2024-01-07T03:31:50;20.48;;;8.13;;
73898;SDS011;62234;50.892;12.724;2024-01-07T03:34:17;18.30;;;8.48;;
73898;SDS011;62234;50.892;12.724;2024-01-07T03:36:43;22.20;;;8.57;;
73898;SDS011;62234;50.892;12.724;2024-01-07T03:39:09;20.77;;;9.07;;
73898;SDS011;62234;50.892;12.724;2024-01-07T03:41:35;19.15;;;8.60;;
73898;SDS011;62234;50.892;12.724;2024-01-07T03:44:01;21.38;;;9.07;;
73898;SDS011;62234;50.892;12.724;2024-01-07T03:46:27;22.33;;;9.38;;
73898;SDS011;62234;50.892;12.724;2024-01-07T03:48:53;21.60;;;9.07;;
73898;SDS011;62234;50.892;12.724;2024-01-07T03:51:19;18.23;;;7.95;;
73898;SDS011;62234;50.892;12.724;2024-01-07T03:53:45;18.10;;;8.45;;
73898;SDS011;62234;50.892;12.724;2024-01-07T03:56:10;28.08;;;9.20;;
73898;SDS011;62234;50.892;12.724;2024-01-07T03:58:36;21.25;;;8.15;;
73898;SDS011;62234;50.892;12.724;2024-01-07T04:01:02;21.33;;;8.38;;
73898;SDS011;62234;50.892;12.724;2024-01-07T04:03:28;19.88;;;8.05;;
73898;SDS011;62234;50.892;12.724;2024-01-07T04:05:54;20.58;;;8.00;;
73898;SDS011;62234;50.892;12.724;2024-01-07T04:08:20;18.90;;;6.20;;
73898;SDS011;62234;50.892;12.724;2024-01-07T04:10:46;21.80;;;8.60;;
73898;SDS011;62234;50.892;12.724;2024-01-07T04:13:12;23.38;;;8.25;;
73898;SDS011;62234;50.892;12.724;2024-01-07T04:15:38;24.67;;;7.90;;
73898;SDS011;62234;50.892;12.724;2024-01-07T04:18:04;19.73;;;7.57;;
73898;SDS011;62234;50.892;12.724;2024-01-07T04:20:30;22.13;;;9.02;;
73898;SDS011;62234;50.892;12.724;2024-01-07T04:22:56;23.42;;;8.60;;
73898;SDS011;62234;50.892;12.724;2024-01-07T04:25:22;21.42;;;8.68;;
73898;SDS011;62234;50.892;12.724;2024-01-07T04:27:48;23.90;;;9.48;;
73898;SDS011;62234;50.892;12.724;2024-01-07T04:30:14;15.75;;;7.70;;
73898;SDS011;62234;50.892;12.724;2024-01-07T04:32:40;16.25;;;7.18;;
73898;SDS011;62234;50.892;12.724;2024-01-07T04:35:06;21.15;;;7.70;;
73898;SDS011;62234;50.892;12.724;2024-01-07T04:37:32;20.13;;;8.10;;
73898;SDS011;62234;50.892;12.724;2024-01-07T04:39:58;19.40;;;8.75;;
73898;SDS011;62234;50.892;12.724;2024-01-07T04:42:25;19.30;;;7.05;;
73898;SDS011;62234;50.892;12.724;2024-01-07T04:44:51;15.95;;;6.70;;
73898;SDS011;62234;50.892;12.724;2024-01-07T04:47:25;17.70;;;6.72;;
73898;SDS011;62234;50.892;12.724;2024-01-07T04:49:51;16.55;;;7.00;;
73898;SDS011;62234;50.892;12.724;2024-01-07T04:52:17;15.32;;;6.40;;
73898;SDS011;62234;50.892;12.724;2024-01-07T04:54:43;20.33;;;7.78;;
73898;SDS011;62234;50.892;12.724;2024-01-07T04:57:09;22.17;;;7.47;;
73898;SDS011;62234;50.892;12.724;2024-01-07T04:59:35;18.25;;;6.22;;
73898;SDS011;62234;50.892;12.724;2024-01-07T05:02:01;12.95;;;7.28;;
73898;SDS011;62234;50.892;12.724;2024-01-07T05:04:27;19.30;;;7.70;;
73898;SDS011;62234;50.892;12.724;2024-01-07T05:06:53;12.90;;;6.20;;
73898;SDS011;62234;50.892;12.724;2024-01-07T05:09:19;19.75;;;7.22;;
73898;SDS011;62234;50.892;12.724;2024-01-07T05:11:45;17.70;;;7.18;;
73898;SDS011;62234;50.892;12.724;2024-01-07T05:14:11;13.57;;;5.97;;
73898;SDS011;62234;50.892;12.724;2024-01-07T05:16:37;14.85;;;6.65;;
73898;SDS011;62234;50.892;12.724;2024-01-07T05:19:03;16.90;;;6.13;;
73898;SDS011;62234;50.892;12.724;2024-01-07T05:21:29;16.05;;;6.43;;
73898;SDS011;62234;50.892;12.724;2024-01-07T05:23:55;11.73;;;5.53;;
73898;SDS011;62234;50.892;12.724;2024-01-07T05:26:21;15.10;;;6.60;;
73898;SDS011;62234;50.892;12.724;2024-01-07T05:28:47;12.27;;;6.20;;
73898;SDS011;62234;50.892;12.724;2024-01-07T05:31:14;14.90;;;6.22;;
73898;SDS011;62234;50.892;12.724;2024-01-07T05:33:40;16.60;;;6.07;;
73898;SDS011;62234;50.892;12.724;2024-01-07T05:36:06;18.58;;;6.63;;
73898;SDS011;62234;50.892;12.724;2024-01-07T05:38:32;12.25;;;5.78;;
73898;SDS011;62234;50.892;12.724;2024-01-07T05:40:58;19.92;;;6.72;;
73898;SDS011;62234;50.892;12.724;2024-01-07T05:43:24;14.95;;;6.40;;
73898;SDS011;62234;50.892;12.724;2024-01-07T05:45:50;16.88;;;5.75;;
73898;SDS011;62234;50.892;12.724;2024-01-07T05:48:16;13.85;;;5.68;;
73898;SDS011;62234;50.892;12.724;2024-01-07T05:50:42;13.82;;;4.63;;
73898;SDS011;62234;50.892;12.724;2024-01-07T05:53:07;13.82;;;6.10;;
73898;SDS011;62234;50.892;12.724;2024-01-07T05:55:33;8.98;;;5.00;;
73898;SDS011;62234;50.892;12.724;2024-01-07T05:57:59;12.98;;;5.70;;
73898;SDS011;62234;50.892;12.724;2024-01-07T06:00:25;10.95;;;4.13;;
73898;SDS011;62234;50.892;12.724;2024-01-07T06:02:51;10.93;;;5.10;;
73898;SDS011;62234;50.892;12.724;2024-01-07T06:05:17;13.68;;;5.72;;
73898;SDS011;62234;50.892;12.724;2024-01-07T06:07:43;8.05;;;4.63;;
73898;SDS011;62234;50.892;12.724;2024-01-07T06:10:09;13.88;;;5.90;;
73898;SDS011;62234;50.892;12.724;2024-01-07T06:12:35;15.45;;;5.97;;
73898;SDS011;62234;50.892;12.724;2024-01-07T06:15:01;16.08;;;5.40;;
73898;SDS011;62234;50.892;12.724;2024-01-07T06:17:26;14.20;;;5.10;;
73898;SDS011;62234;50.892;12.724;2024-01-07T06:19:52;13.07;;;5.80;;
73898;SDS011;62234;50.892;12.724;2024-01-07T06:22:18;16.00;;;5.80;;
73898;SDS011;62234;50.892;12.724;2024-01-07T06:24:44;17.52;;;6.38;;
73898;SDS011;62234;50.892;12.724;2024-01-07T06:27:10;9.40;;;4.18;;
73898;SDS011;62234;50.892;12.724;2024-01-07T06:29:36;11.10;;;5.53;;
73898;SDS011;62234;50.892;12.724;2024-01-07T06:32:02;9.50;;;5.45;;
73898;SDS011;62234;50.892;12.724;2024-01-07T06:34:28;15.48;;;5.22;;
73898;SDS011;62234;50.892;12.724;2024-01-07T06:36:54;15.75;;;5.93;;
73898;SDS011;62234;50.892;12.724;2024-01-07T06:39:20;15.18;;;5.15;;
73898;SDS011;62234;50.892;12.724;2024-01-07T06:41:46;11.88;;;4.90;;
73898;SDS011;62234;50.892;12.724;2024-01-07T06:44:12;10.05;;;5.38;;
73898;SDS011;62234;50.892;12.724;2024-01-07T06:46:38;8.15;;;4.20;;
73898;SDS011;62234;50.892;12.724;2024-01-07T06:49:04;9.65;;;4.63;;
73898;SDS011;62234;50.892;12.724;2024-01-07T06:51:30;12.25;;;5.03;;
73898;SDS011;62234;50.892;12.724;2024-01-07T06:53:55;9.10;;;4.05;;
73898;SDS011;62234;50.892;12.724;2024-01-07T06:56:21;8.95;;;4.28;;
73898;SDS011;62234;50.892;12.724;2024-01-07T06:58:49;15.48;;;4.90;;
73898;SDS011;62234;50.892;12.724;2024-01-07T07:01:17;8.93;;;2.95;;
73898;SDS011;62234;50.892;12.724;2024-01-07T07:03:43;11.13;;;4.63;;
73898;SDS011;62234;50.892;12.724;2024-01-07T07:06:09;9.05;;;3.60;;
73898;SDS011;62234;50.892;12.724;2024-01-07T07:08:36;8.45;;;4.05;;
73898;SDS011;62234;50.892;12.724;2024-01-07T07:11:02;8.90;;;4.15;;
73898;SDS011;62234;50.892;12.724;2024-01-07T07:13:28;8.35;;;3.90;;
73898;SDS011;62234;50.892;12.724;2024-01-07T07:15:54;9.40;;;4.28;;
73898;SDS011;62234;50.892;12.724;2024-01-07T07:18:20;6.15;;;3.20;;
73898;SDS011;62234;50.892;12.724;2024-01-07T07:20:46;7.57;;;4.10;;
73898;SDS011;62234;50.892;12.724;2024-01-07T07:23:12;5.80;;;3.70;;
73898;SDS011;62234;50.892;12.724;2024-01-07T07:25:38;9.85;;;4.25;;
73898;SDS011;62234;50.892;12.724;2024-01-07T07:28:04;7.65;;;3.85;;
73898;SDS011;62234;50.892;12.724;2024-01-07T07:30:30;10.13;;;4.03;;
73898;SDS011;62234;50.892;12.724;2024-01-07T07:32:56;8.07;;;4.13;;
73898;SDS011;62234;50.892;12.724;2024-01-07T07:35:22;6.88;;;3.45;;
73898;SDS011;62234;50.892;12.724;2024-01-07T07:37:48;9.18;;;3.47;;
73898;SDS011;62234;50.892;12.724;2024-01-07T07:40:14;9.80;;;4.10;;
73898;SDS011;62234;50.892;12.724;2024-01-07T07:42:40;7.03;;;3.70;;
73898;SDS011;62234;50.892;12.724;2024-01-07T07:45:06;7.38;;;3.40;;
73898;SDS011;62234;50.892;12.724;2024-01-07T07:47:32;7.20;;;3.22;;
73898;SDS011;62234;50.892;12.724;2024-01-07T07:49:58;8.88;;;3.55;;
73898;SDS011;62234;50.892;12.724;2024-01-07T07:52:24;8.82;;;2.97;;
73898;SDS011;62234;50.892;12.724;2024-01-07T07:54:53;9.98;;;3.30;;
73898;SDS011;62234;50.892;12.724;2024-01-07T07:57:20;3.97;;;2.38;;
73898;SDS011;62234;50.892;12.724;2024-01-07T07:59:47;6.40;;;2.97;;
73898;SDS011;62234;50.892;12.724;2024-01-07T08:02:14;6.45;;;3.58;;
73898;SDS011;62234;50.892;12.724;2024-01-07T08:04:40;5.32;;;2.95;;
73898;SDS011;62234;50.892;12.724;2024-01-07T08:07:07;5.38;;;3.00;;
73898;SDS011;62234;50.892;12.724;2024-01-07T08:09:33;4.47;;;2.83;;
73898;SDS011;62234;50.892;12.724;2024-01-07T08:12:02;5.18;;;2.85;;
73898;SDS011;62234;50.892;12.724;2024-01-07T08:14:28;6.80;;;3.58;;
73898;SDS011;62234;50.892;12.724;2024-01-07T08:16:54;9.25;;;3.08;;
73898;SDS011;62234;50.892;12.724;2024-01-07T08:19:20;7.35;;;3.38;;
73898;SDS011;62234;50.892;12.724;2024-01-07T08:21:46;6.85;;;3.35;;
73898;SDS011;62234;50.892;12.724;2024-01-07T08:24:12;6.55;;;2.95;;
73898;SDS011;62234;50.892;12.724;2024-01-07T08:26:38;6.25;;;2.90;;
73898;SDS011;62234;50.892;12.724;2024-01-07T08:29:04;6.30;;;3.45;;
73898;SDS011;62234;50.892;12.724;2024-01-07T08:31:30;7.53;;;2.88;;
73898;SDS011;62234;50.892;12.724;2024-01-07T08:33:56;6.45;;;3.38;;
73898;SDS011;62234;50.892;12.724;2024-01-07T08:36:22;6.55;;;3.13;;
73898;SDS011;62234;50.892;12.724;2024-01-07T08:38:48;5.95;;;2.90;;
73898;SDS011;62234;50.892;12.724;2024-01-07T08:41:15;6.32;;;3.15;;
73898;SDS011;62234;50.892;12.724;2024-01-07T08:43:41;5.25;;;3.00;;
73898;SDS011;62234;50.892;12.724;2024-01-07T08:46:07;8.68;;;3.25;;
73898;SDS011;62234;50.892;12.724;2024-01-07T08:48:33;5.35;;;3.22;;
73898;SDS011;62234;50.892;12.724;2024-01-07T08:50:59;6.25;;;3.10;;
73898;SDS011;62234;50.892;12.724;2024-01-07T08:53:25;7.72;;;3.88;;
73898;SDS011;62234;50.892;12.724;2024-01-07T08:55:51;7.93;;;3.65;;
73898;SDS011;62234;50.892;12.724;2024-01-07T08:58:17;7.30;;;3.55;;
73898;SDS011;62234;50.892;12.724;2024-01-07T09:00:43;6.40;;;3.05;;
73898;SDS011;62234;50.892;12.724;2024-01-07T09:03:09;7.45;;;3.17;;
73898;SDS011;62234;50.892;12.724;2024-01-07T09:05:35;2.42;;;2.30;;
73898;SDS011;62234;50.892;12.724;2024-01-07T09:08:01;3.95;;;2.25;;
73898;SDS011;62234;50.892;12.724;2024-01-07T09:10:27;4.03;;;2.58;;
73898;SDS011;62234;50.892;12.724;2024-01-07T09:12:53;3.33;;;2.30;;
73898;SDS011;62234;50.892;12.724;2024-01-07T09:15:19;4.95;;;2.53;;
73898;SDS011;62234;50.892;12.724;2024-01-07T09:17:46;5.22;;;2.70;;
73898;SDS011;62234;50.892;12.724;2024-01-07T09:20:12;5.57;;;2.72;;
73898;SDS011;62234;50.892;12.724;2024-01-07T09:22:38;5.22;;;2.55;;
73898;SDS011;62234;50.892;12.724;2024-01-07T09:25:05;7.40;;;3.33;;
73898;SDS011;62234;50.892;12.724;2024-01-07T09:27:32;5.95;;;2.70;;
73898;SDS011;62234;50.892;12.724;2024-01-07T09:29:58;7.43;;;2.72;;
73898;SDS011;62234;50.892;12.724;2024-01-07T09:32:24;7.20;;;2.60;;
73898;SDS011;62234;50.892;12.724;2024-01-07T09:34:50;4.30;;;2.42;;
73898;SDS011;62234;50.892;12.724;2024-01-07T09:37:16;6.05;;;2.65;;
73898;SDS011;62234;50.892;12.724;2024-01-07T09:39:43;4.72;;;2.75;;
73898;SDS011;62234;50.892;12.724;2024-01-07T09:42:17;4.95;;;2.38;;
73898;SDS011;62234;50.892;12.724;2024-01-07T09:44:43;6.20;;;2.42;;
73898;SDS011;62234;50.892;12.724;2024-01-07T09:47:13;2.92;;;2.00;;
73898;SDS011;62234;50.892;12.724;2024-01-07T09:49:40;2.88;;;1.73;;
73898;SDS011;62234;50.892;12.724;2024-01-07T09:52:06;2.75;;;2.08;;
73898;SDS011;62234;50.892;12.724;2024-01-07T09:54:33;3.50;;;2.38;;
73898;SDS011;62234;50.892;12.724;2024-01-07T09:57:02;4.28;;;1.73;;
73898;SDS011;62234;50.892;12.724;2024-01-07T09:59:30;3.15;;;1.33;;
73898;SDS011;62234;50.892;12.724;2024-01-07T10:01:57;2.50;;;1.50;;
73898;SDS011;62234;50.892;12.724;2024-01-07T10:04:23;5.43;;;1.48;;
73898;SDS011;62234;50.892;12.724;2024-01-07T10:06:49;4.70;;;1.85;;
73898;SDS011;62234;50.892;12.724;2024-01-07T10:09:16;3.63;;;1.63;;
73898;SDS011;62234;50.892;12.724;2024-01-07T10:11:43;2.38;;;1.52;;
73898;SDS011;62234;50.892;12.724;2024-01-07T10:14:09;2.92;;;2.25;;
73898;SDS011;62234;50.892;12.724;2024-01-07T10:16:35;4.70;;;2.03;;
73898;SDS011;62234;50.892;12.724;2024-01-07T10:19:01;2.72;;;1.45;;
73898;SDS011;62234;50.892;12.724;2024-01-07T10:21:27;4.30;;;2.13;;
73898;SDS011;62234;50.892;12.724;2024-01-07T10:24:09;2.53;;;1.40;;
73898;SDS011;62234;50.892;12.724;2024-01-07T10:26:35;2.30;;;1.30;;
73898;SDS011;62234;50.892;12.724;2024-01-07T10:29:01;4.13;;;1.05;;
73898;SDS011;62234;50.892;12.724;2024-01-07T10:31:27;2.47;;;1.58;;
73898;SDS011;62234;50.892;12.724;2024-01-07T10:33:54;3.67;;;1.75;;
73898;SDS011;62234;50.892;12.724;2024-01-07T10:36:20;2.78;;;1.77;;
73898;SDS011;62234;50.892;12.724;2024-01-07T10:38:47;3.15;;;1.98;;
73898;SDS011;62234;50.892;12.724;2024-01-07T10:41:14;1.58;;;1.10;;
73898;SDS011;62234;50.892;12.724;2024-01-07T10:43:40;2.13;;;1.60;;
73898;SDS011;62234;50.892;12.724;2024-01-07T10:46:07;1.55;;;1.42;;
73898;SDS011;62234;50.892;12.724;2024-01-07T10:48:36;2.33;;;1.27;;
73898;SDS011;62234;50.892;12.724;2024-01-07T10:51:03;2.03;;;1.10;;
73898;SDS011;62234;50.892;12.724;2024-01-07T10:53:33;2.10;;;1.65;;
73898;SDS011;62234;50.892;12.724;2024-01-07T10:56:05;3.25;;;1.67;;
73898;SDS011;62234;50.892;12.724;2024-01-07T10:58:32;2.22;;;1.60;;
73898;SDS011;62234;50.892;12.724;2024-01-07T11:01:01;2.60;;;1.08;;
73898;SDS011;62234;50.892;12.724;2024-01-07T11:03:40;2.13;;;1.45;;
73898;SDS011;62234;50.892;12.724;2024-01-07T11:06:18;2.65;;;1.55;;
73898;SDS011;62234;50.892;12.724;2024-01-07T11:08:52;2.15;;;1.30;;
73898;SDS011;62234;50.892;12.724;2024-01-07T11:11:22;2.65;;;1.83;;
73898;SDS011;62234;50.892;12.724;2024-01-07T11:13:51;2.97;;;1.25;;
73898;SDS011;62234;50.892;12.724;2024-01-07T11:19:15;7.32;;;2.35;;
73898;SDS011;62234;50.892;12.724;2024-01-07T11:21:41;3.13;;;1.77;;
73898;SDS011;62234;50.892;12.724;2024-01-07T11:24:07;1.83;;;1.52;;
73898;SDS011;62234;50.892;12.724;2024-01-07T11:26:33;3.60;;;2.03;;
73898;SDS011;62234;50.892;12.724;2024-01-07T11:29:00;2.05;;;1.23;;
73898;SDS011;62234;50.892;12.724;2024-01-07T11:34:04;3.90;;;1.67;;
73898;SDS011;62234;50.892;12.724;2024-01-07T11:36:30;2.17;;;1.40;;
73898;SDS011;62234;50.892;12.724;2024-01-07T11:38:56;5.75;;;2.60;;
73898;SDS011;62234;50.892;12.724;2024-01-07T11:41:22;3.65;;;1.42;;
73898;SDS011;62234;50.892;12.724;2024-01-07T11:43:54;1.10;;;1.10;;
73898;SDS011;62234;50.892;12.724;2024-01-07T11:46:21;1.98;;;1.15;;
73898;SDS011;62234;50.892;12.724;2024-01-07T11:48:46;3.28;;;1.48;;
73898;SDS011;62234;50.892;12.724;2024-01-07T11:51:13;1.42;;;1.33;;
73898;SDS011;62234;50.892;12.724;2024-01-07T11:53:39;2.78;;;1.23;;
73898;SDS011;62234;50.892;12.724;2024-01-07T11:56:05;2.50;;;1.85;;
73898;SDS011;62234;50.892;12.724;2024-01-07T11:58:34;1.65;;;1.42;;
73898;SDS011;62234;50.892;12.724;2024-01-07T12:00:59;4.10;;;1.58;;
73898;SDS011;62234;50.892;12.724;2024-01-07T12:03:25;3.63;;;2.25;;
73898;SDS011;62234;50.892;12.724;2024-01-07T12:05:51;2.55;;;1.20;;
73898;SDS011;62234;50.892;12.724;2024-01-07T12:08:17;3.33;;;1.60;;
73898;SDS011;62234;50.892;12.724;2024-01-07T12:10:43;4.03;;;1.52;;
73898;SDS011;62234;50.892;12.724;2024-01-07T12:13:10;2.55;;;1.42;;
73898;SDS011;62234;50.892;12.724;2024-01-07T12:15:37;3.83;;;1.80;;
73898;SDS011;62234;50.892;12.724;2024-01-07T12:18:04;2.75;;;1.40;;
73898;SDS011;62234;50.892;12.724;2024-01-07T12:20:29;3.75;;;1.77;;
73898;SDS011;62234;50.892;12.724;2024-01-07T12:22:56;2.03;;;1.02;;
73898;SDS011;62234;50.892;12.724;2024-01-07T12:25:22;1.92;;;1.27;;
73898;SDS011;62234;50.892;12.724;2024-01-07T12:27:51;1.95;;;0.82;;
73898;SDS011;62234;50.892;12.724;2024-01-07T12:30:21;0.88;;;0.80;;
73898;SDS011;62234;50.892;12.724;2024-01-07T12:32:47;2.50;;;1.08;;
73898;SDS011;62234;50.892;12.724;2024-01-07T12:35:13;1.77;;;1.30;;
73898;SDS011;62234;50.892;12.724;2024-01-07T12:37:39;2.00;;;0.90;;
73898;SDS011;62234;50.892;12.724;2024-01-07T12:40:05;1.05;;;0.90;;
73898;SDS011;62234;50.892;12.724;2024-01-07T12:42:34;1.10;;;0.80;;
73898;SDS011;62234;50.892;12.724;2024-01-07T12:44:59;2.03;;;0.80;;
73898;SDS011;62234;50.892;12.724;2024-01-07T12:47:25;2.40;;;1.00;;
73898;SDS011;62234;50.892;12.724;2024-01-07T12:49:51;1.98;;;1.05;;
73898;SDS011;62234;50.892;12.724;2024-01-07T12:52:17;2.10;;;1.23;;
73898;SDS011;62234;50.892;12.724;2024-01-07T12:54:43;1.25;;;1.00;;
73898;SDS011;62234;50.892;12.724;2024-01-07T12:57:10;1.00;;;0.77;;
73898;SDS011;62234;50.892;12.724;2024-01-07T12:59:36;1.35;;;0.68;;
73898;SDS011;62234;50.892;12.724;2024-01-07T13:02:02;1.02;;;0.80;;
73898;SDS011;62234;50.892;12.724;2024-01-07T13:04:28;1.23;;;0.85;;
73898;SDS011;62234;50.892;12.724;2024-01-07T13:06:54;1.33;;;0.80;;
73898;SDS011;62234;50.892;12.724;2024-01-07T13:09:19;3.00;;;1.10;;
73898;SDS011;62234;50.892;12.724;2024-01-07T13:11:45;1.15;;;1.00;;
73898;SDS011;62234;50.892;12.724;2024-01-07T13:14:11;1.35;;;1.02;;
73898;SDS011;62234;50.892;12.724;2024-01-07T13:16:37;1.10;;;0.95;;
73898;SDS011;62234;50.892;12.724;2024-01-07T13:19:03;2.28;;;1.10;;
73898;SDS011;62234;50.892;12.724;2024-01-07T13:21:29;2.35;;;1.15;;
73898;SDS011;62234;50.892;12.724;2024-01-07T13:23:55;1.42;;;0.82;;
73898;SDS011;62234;50.892;12.724;2024-01-07T13:26:24;1.98;;;1.33;;
73898;SDS011;62234;50.892;12.724;2024-01-07T13:28:50;2.08;;;1.27;;
73898;SDS011;62234;50.892;12.724;2024-01-07T13:31:16;0.85;;;0.52;;
73898;SDS011;62234;50.892;12.724;2024-01-07T13:33:42;3.05;;;1.20;;
73898;SDS011;62234;50.892;12.724;2024-01-07T13:36:08;1.17;;;0.45;;
73898;SDS011;62234;50.892;12.724;2024-01-07T13:38:36;1.95;;;0.90;;
73898;SDS011;62234;50.892;12.724;2024-01-07T13:41:03;1.63;;;1.05;;
73898;SDS011;62234;50.892;12.724;2024-01-07T13:43:29;1.05;;;0.43;;
73898;SDS011;62234;50.892;12.724;2024-01-07T13:45:55;2.47;;;1.00;;
73898;SDS011;62234;50.892;12.724;2024-01-07T13:48:21;2.30;;;1.35;;
73898;SDS011;62234;50.892;12.724;2024-01-07T13:50:47;1.05;;;0.70;;
73898;SDS011;62234;50.892;12.724;2024-01-07T13:53:14;1.20;;;0.70;;
73898;SDS011;62234;50.892;12.724;2024-01-07T13:55:40;0.85;;;0.70;;
73898;SDS011;62234;50.892;12.724;2024-01-07T13:58:06;1.55;;;0.63;;
73898;SDS011;62234;50.892;12.724;2024-01-07T14:00:32;1.70;;;1.13;;
73898;SDS011;62234;50.892;12.724;2024-01-07T14:02:58;1.67;;;0.85;;
73898;SDS011;62234;50.892;12.724;2024-01-07T14:05:23;2.00;;;0.47;;
73898;SDS011;62234;50.892;12.724;2024-01-07T14:07:49;3.05;;;0.82;;
73898;SDS011;62234;50.892;12.724;2024-01-07T14:10:16;1.55;;;1.08;;
73898;SDS011;62234;50.892;12.724;2024-01-07T14:12:44;1.92;;;1.10;;
73898;SDS011;62234;50.892;12.724;2024-01-07T14:15:10;1.00;;;0.77;;
73898;SDS011;62234;50.892;12.724;2024-01-07T14:17:36;1.20;;;0.90;;
73898;SDS011;62234;50.892;12.724;2024-01-07T14:20:02;0.85;;;0.47;;
73898;SDS011;62234;50.892;12.724;2024-01-07T14:22:28;1.42;;;0.85;;
73898;SDS011;62234;50.892;12.724;2024-01-07T14:24:54;1.38;;;0.70;;
73898;SDS011;62234;50.892;12.724;2024-01-07T14:27:20;1.35;;;0.88;;